Time;durP1;ratioP1;P1;durP2;ratioP2;P2;SDS_P1;SDS_P2;PMS_P1;PMS_P2;Temp;Humidity;BMP_temperature;BMP_pressure;BME280_temperature;BME280_humidity;BME280_pressure;Samples;Min_cycle;Max_cycle;Signal;HPM_P1;HPM_P2
2022/10/30 00:02:18;;;;;;;;;;;;;;;16.04;74.01;101625.75;5048551;28;19920;-59
2022/10/30 00:04:43;;;;;;;;;;;;;;;16.01;74.10;101627.97;5050666;28;20006;-58
2022/10/30 00:07:08;;;;;;;;;;;;;;;16.01;74.34;101625.28;5052566;28;19916;-59
2022/10/30 00:09:34;;;;;;;;;;;;;;;16.00;74.42;101621.78;5051011;28;20426;-59
2022/10/30 00:11:59;;;;;;;;;;;;;;;15.99;74.01;101625.47;5048113;28;19916;-59
2022/10/30 00:14:24;;;;;;;;;;;;;;;15.97;74.42;101624.81;5048731;28;20292;-59
2022/10/30 00:16:49;;;;;;;;;;;;;;;15.95;74.52;101620.69;5054394;28;19916;-59
2022/10/30 00:19:14;;;;;;;;;;;;;;;15.93;74.37;101622.72;5051768;28;19971;-59
2022/10/30 00:21:39;;;;;;;;;;;;;;;15.92;74.34;101621.06;5047954;28;19917;-59
2022/10/30 00:24:05;;;;;;;;;;;;;;;15.89;74.46;101624.91;5046429;28;20430;-59
2022/10/30 00:26:32;;;;;;;;;;;;;;;15.88;74.58;101627.78;5048001;28;19917;-59
2022/10/30 00:28:57;;;;;;;;;;;;;;;15.87;74.64;101626.13;5046270;28;20074;-59
2022/10/30 00:31:22;;;;;;;;;;;;;;;15.86;74.66;101625.28;5035901;28;20416;-59
2022/10/30 00:33:48;;;;;;;;;;;;;;;15.84;74.55;101618.47;5050512;28;19921;-59
2022/10/30 00:36:13;;;;;;;;;;;;;;;15.80;74.66;101616.16;5047703;28;20554;-59
2022/10/30 00:38:38;;;;;;;;;;;;;;;15.78;74.60;101614.69;5052145;28;20012;-59
2022/10/30 00:41:04;;;;;;;;;;;;;;;15.76;74.50;101608.69;5041790;28;19916;-58
2022/10/30 00:43:31;;;;;;;;;;;;;;;15.73;74.78;101604.53;5043436;28;19967;-59
2022/10/30 00:45:58;;;;;;;;;;;;;;;15.71;74.47;101611.09;5035674;28;19924;-59
2022/10/30 00:48:25;;;;;;;;;;;;;;;15.70;74.72;101606.75;5046553;28;19921;-57
2022/10/30 00:50:50;;;;;;;;;;;;;;;15.68;74.92;101608.78;5046058;28;19960;-59
2022/10/30 00:53:17;;;;;;;;;;;;;;;15.67;74.63;101610.63;5055019;28;19968;-59
2022/10/30 00:55:51;;;;;;;;;;;;;;;15.65;74.85;101611.84;5048749;28;20031;-59
2022/10/30 00:58:18;;;;;;;;;;;;;;;15.63;74.70;101612.03;5045474;28;20291;-59
2022/10/30 01:00:45;;;;;;;;;;;;;;;15.62;75.13;101612.22;5045423;28;19917;-59
2022/10/30 01:03:10;;;;;;;;;;;;;;;15.59;75.03;101613.38;5041171;28;19944;-58
2022/10/30 01:05:36;;;;;;;;;;;;;;;15.58;75.12;101611.72;5042392;28;20332;-59
2022/10/30 01:08:01;;;;;;;;;;;;;;;15.57;74.83;101618.06;5039255;28;19917;-59
2022/10/30 01:10:26;;;;;;;;;;;;;;;15.54;75.30;101623.78;5050788;28;19924;-59
2022/10/30 01:12:52;;;;;;;;;;;;;;;15.53;74.94;101624.78;5043578;28;20301;-59
2022/10/30 01:15:22;;;;;;;;;;;;;;;15.49;75.01;101618.97;5041964;28;20406;-59
2022/10/30 01:18:02;;;;;;;;;;;;;;;15.49;75.38;101620.84;5044848;28;20019;-59
2022/10/30 01:20:46;;;;;;;;;;;;;;;15.46;75.23;101622.03;5042856;28;19959;-59
2022/10/30 01:23:21;;;;;;;;;;;;;;;15.46;75.20;101622.03;5044302;28;19928;-59
2022/10/30 01:25:58;;;;;;;;;;;;;;;15.41;75.36;101615.56;5050030;28;19920;-59
2022/10/30 01:28:34;;;;;;;;;;;;;;;15.36;75.46;101617.97;5049345;28;19921;-58
2022/10/30 01:31:19;;;;;;;;;;;;;;;15.29;75.40;101617.84;5042528;28;20615;-59
2022/10/30 01:33:45;;;;;;;;;;;;;;;15.23;75.18;101615.06;5033919;28;20015;-59
2022/10/30 01:36:30;;;;;;;;;;;;;;;15.17;75.45;101617.47;5052128;28;20023;-59
2022/10/30 01:38:58;;;;;;;;;;;;;;;15.15;75.31;101614.16;5047336;28;19920;-59
2022/10/30 01:41:23;;;;;;;;;;;;;;;15.16;75.57;101617.66;5048583;28;20008;-59
2022/10/30 01:43:51;;;;;;;;;;;;;;;15.16;75.82;101623.00;5056553;28;20012;-59
2022/10/30 01:46:17;;;;;;;;;;;;;;;15.13;75.99;101621.53;5047562;28;19919;-58
2022/10/30 01:48:48;;;;;;;;;;;;;;;15.12;76.14;101621.72;5050861;28;20011;-59
2022/10/30 01:51:15;;;;;;;;;;;;;;;15.10;76.18;101629.91;5053919;28;19939;-59
2022/10/30 01:53:45;;;;;;;;;;;;;;;15.10;75.95;101627.25;5049084;28;19986;-59
2022/10/30 01:56:16;;;;;;;;;;;;;;;15.09;76.06;101628.25;5043027;28;19921;-59
2022/10/30 01:58:57;;;;;;;;;;;;;;;15.08;76.23;101621.25;5046845;28;20340;-58
2022/10/30 02:01:22;;;;;;;;;;;;;;;15.04;76.36;101633.31;5045678;28;19955;-59
2022/10/30 02:03:48;;;;;;;;;;;;;;;15.03;76.34;101636.13;5054600;28;20393;-59
2022/10/30 02:06:13;;;;;;;;;;;;;;;15.03;76.15;101639.66;5050807;28;20296;-59
2022/10/30 02:08:38;;;;;;;;;;;;;;;15.01;76.17;101633.66;5054002;28;19960;-59
2022/10/30 02:11:03;;;;;;;;;;;;;;;15.00;76.38;101631.16;5048537;28;20323;-58
2022/10/30 02:13:28;;;;;;;;;;;;;;;14.99;76.44;101634.84;5043602;28;19924;-59
2022/10/30 02:15:54;;;;;;;;;;;;;;;14.97;76.62;101635.03;5053163;28;19943;-59
2022/10/30 02:18:19;;;;;;;;;;;;;;;14.96;76.57;101628.00;5043035;28;19921;-59
2022/10/30 02:20:44;;;;;;;;;;;;;;;14.95;76.23;101618.31;5048703;28;20380;-59
2022/10/30 02:23:15;;;;;;;;;;;;;;;14.93;76.30;101623.03;5052030;28;19921;-59
2022/10/30 02:25:40;;;;;;;;;;;;;;;14.91;76.26;101632.25;5043853;28;19914;-59
2022/10/30 02:28:05;;;;;;;;;;;;;;;14.90;76.71;101635.94;5045031;28;19962;-59
2022/10/30 02:30:31;;;;;;;;;;;;;;;14.88;76.80;101636.13;5043037;28;19918;-59
2022/10/30 02:32:56;;;;;;;;;;;;;;;14.87;76.81;101643.31;5050923;28;20396;-59
2022/10/30 02:35:21;;;;;;;;;;;;;;;14.88;76.92;101642.28;5045329;28;20015;-59
2022/10/30 02:37:47;;;;;;;;;;;;;;;14.88;77.14;101638.78;5050319;28;20429;-59
2022/10/30 02:40:12;;;;;;;;;;;;;;;14.85;77.06;101649.84;5046321;28;20006;-58
2022/10/30 02:42:38;;;;;;;;;;;;;;;14.83;77.11;101646.53;5044444;28;19955;-59
2022/10/30 02:45:03;;;;;;;;;;;;;;;14.81;77.23;101652.06;5045315;28;20024;-59
2022/10/30 02:47:28;;;;;;;;;;;;;;;14.79;77.24;101645.22;5044386;28;19917;-59
2022/10/30 02:49:53;;;;;;;;;;;;;;;14.78;76.96;101641.72;5048259;28;19921;-59
2022/10/30 02:52:18;;;;;;;;;;;;;;;14.75;76.88;101639.41;5043472;28;20057;-58
2022/10/30 02:54:43;;;;;;;;;;;;;;;14.75;77.21;101635.88;5045465;28;19925;-58
2022/10/30 02:57:09;;;;;;;;;;;;;;;14.73;76.89;101644.06;5046417;28;19963;-59
2022/10/30 02:59:34;;;;;;;;;;;;;;;14.72;77.35;101639.72;5049014;28;20591;-59
2022/10/30 03:01:59;;;;;;;;;;;;;;;14.71;77.35;101646.09;5050202;28;19962;-59
2022/10/30 03:04:24;;;;;;;;;;;;;;;14.71;77.19;101639.91;5055012;28;20399;-59
2022/10/30 03:06:50;;;;;;;;;;;;;;;14.68;77.24;101638.44;5049873;28;19986;-59
2022/10/30 03:09:15;;;;;;;;;;;;;;;14.64;77.17;101633.63;5047871;28;20507;-59
2022/10/30 03:11:40;;;;;;;;;;;;;;;14.61;77.24;101632.13;5046470;28;19924;-59
2022/10/30 03:14:05;;;;;;;;;;;;;;;14.59;77.18;101642.16;5049594;28;20501;-59
2022/10/30 03:16:32;;;;;;;;;;;;;;;14.56;77.22;101635.34;5050201;28;19917;-59
2022/10/30 03:18:57;;;;;;;;;;;;;;;14.54;77.14;101634.69;5055653;28;20011;-59
2022/10/30 03:21:24;;;;;;;;;;;;;;;14.53;77.12;101635.69;5049149;28;20016;-59
2022/10/30 03:23:49;;;;;;;;;;;;;;;14.53;77.24;101633.03;5059163;28;20019;-59
2022/10/30 03:26:15;;;;;;;;;;;;;;;14.53;77.65;101632.19;5049109;28;20016;-59
2022/10/30 03:28:40;;;;;;;;;;;;;;;14.50;77.47;101633.38;5055887;28;19916;-58
2022/10/30 03:31:06;;;;;;;;;;;;;;;14.49;77.49;101634.38;5047245;28;19979;-59
2022/10/30 03:33:32;;;;;;;;;;;;;;;14.49;77.63;101631.72;5050668;28;19916;-59
2022/10/30 03:35:58;;;;;;;;;;;;;;;14.46;77.67;101632.06;5050229;28;19923;-59
2022/10/30 03:38:23;;;;;;;;;;;;;;;14.44;77.62;101636.72;5049393;28;19924;-59
2022/10/30 03:40:48;;;;;;;;;;;;;;;14.42;77.81;101640.56;5045588;28;19916;-59
2022/10/30 03:43:13;;;;;;;;;;;;;;;14.36;77.83;101633.25;5044215;28;19917;-59
2022/10/30 03:45:38;;;;;;;;;;;;;;;14.27;77.91;101629.81;5040137;28;19928;-59
2022/10/30 03:48:05;;;;;;;;;;;;;;;14.22;77.85;101632.19;5048360;28;19925;-59
2022/10/30 03:50:30;;;;;;;;;;;;;;;14.18;77.76;101641.56;5054601;28;20265;-59
2022/10/30 03:52:56;;;;;;;;;;;;;;;14.16;78.24;101643.53;5039708;28;19943;-59
2022/10/30 03:55:21;;;;;;;;;;;;;;;14.14;78.30;101645.56;5045092;28;20030;-58
2022/10/30 03:57:46;;;;;;;;;;;;;;;14.14;78.20;101649.06;5042020;28;19921;-58
2022/10/30 04:00:12;;;;;;;;;;;;;;;14.14;78.21;101648.22;5040762;28;20066;-59
2022/10/30 04:02:37;;;;;;;;;;;;;;;14.10;78.22;101653.09;5041198;28;20368;-59
2022/10/30 04:05:02;;;;;;;;;;;;;;;14.08;78.39;101654.25;5045820;28;20806;-59
2022/10/30 04:07:28;;;;;;;;;;;;;;;14.06;78.26;101662.44;5040294;28;20384;-59
2022/10/30 04:09:53;;;;;;;;;;;;;;;14.03;78.79;101656.63;5045403;28;19981;-59
2022/10/30 04:12:19;;;;;;;;;;;;;;;14.02;78.38;101662.97;5044284;28;20003;-59
2022/10/30 04:14:44;;;;;;;;;;;;;;;14.01;78.72;101661.31;5045395;28;19935;-59
2022/10/30 04:17:09;;;;;;;;;;;;;;;13.99;78.99;101656.16;5044688;28;20433;-58
2022/10/30 04:19:35;;;;;;;;;;;;;;;13.97;78.53;101651.97;5046471;28;19931;-59
2022/10/30 04:22:00;;;;;;;;;;;;;;;13.95;78.85;101652.16;5048532;28;20021;-58
2022/10/30 04:24:25;;;;;;;;;;;;;;;13.93;78.69;101648.84;5049273;28;19917;-59
2022/10/30 04:26:51;;;;;;;;;;;;;;;13.91;78.87;101649.00;5047816;28;19917;-59
2022/10/30 04:29:16;;;;;;;;;;;;;;;13.85;78.97;101644.34;5042075;28;20478;-59
2022/10/30 04:31:41;;;;;;;;;;;;;;;13.80;78.75;101644.03;5048588;28;20517;-58
2022/10/30 04:34:06;;;;;;;;;;;;;;;13.74;78.73;101641.22;5047060;28;19916;-59
2022/10/30 04:36:32;;;;;;;;;;;;;;;13.71;79.10;101650.41;5048915;28;20438;-59
2022/10/30 04:38:58;;;;;;;;;;;;;;;13.68;79.07;101640.06;5049170;28;19921;-58
2022/10/30 04:41:23;;;;;;;;;;;;;;;13.68;79.21;101634.72;5046873;28;19923;-59
2022/10/30 04:43:49;;;;;;;;;;;;;;;13.63;79.31;101621.91;5047992;28;19960;-59
2022/10/30 04:46:16;;;;;;;;;;;;;;;13.58;79.34;101620.72;5048384;28;19931;-59
2022/10/30 04:48:41;;;;;;;;;;;;;;;13.54;79.26;101622.91;5047378;28;19971;-58
2022/10/30 04:51:07;;;;;;;;;;;;;;;13.54;79.12;101627.41;5055368;28;19921;-58
2022/10/30 04:53:32;;;;;;;;;;;;;;;13.57;79.22;101627.06;5049791;28;19920;-59
2022/10/30 04:55:57;;;;;;;;;;;;;;;13.59;79.56;101625.91;5044833;28;19916;-59
2022/10/30 04:58:22;;;;;;;;;;;;;;;13.63;79.69;101616.56;5043386;28;20389;-58
2022/10/30 05:00:47;;;;;;;;;;;;;;;13.67;79.54;101617.03;5047449;28;19923;-59
2022/10/30 05:03:22;;;;;;;;;;;;;;;13.71;79.81;101626.38;5051963;28;19955;-58
2022/10/30 05:05:54;;;;;;;;;;;;;;;13.74;79.77;101622.53;5044397;28;19982;-58
2022/10/30 05:08:19;;;;;;;;;;;;;;;13.74;79.79;101620.69;5051961;28;19916;-59
2022/10/30 05:10:44;;;;;;;;;;;;;;;13.74;79.56;101630.53;5049709;28;20308;-59
2022/10/30 05:13:10;;;;;;;;;;;;;;;13.74;79.69;101626.03;5045408;28;20029;-58
2022/10/30 05:15:35;;;;;;;;;;;;;;;13.72;79.92;101620.03;5049142;28;19939;-59
2022/10/30 05:18:00;;;;;;;;;;;;;;;13.70;79.96;101615.88;5051160;28;19981;-59
2022/10/30 05:20:25;;;;;;;;;;;;;;;13.67;79.93;101627.72;5044855;28;20396;-59
2022/10/30 05:22:54;;;;;;;;;;;;;;;13.66;80.02;101639.41;5050018;28;20026;-59
2022/10/30 05:25:19;;;;;;;;;;;;;;;13.66;80.23;101641.25;5048033;28;20323;-59
2022/10/30 05:27:44;;;;;;;;;;;;;;;13.64;80.09;101634.25;5047659;28;19921;-58
2022/10/30 05:30:10;;;;;;;;;;;;;;;13.62;80.20;101643.41;5044540;28;19923;-59
2022/10/30 05:32:35;;;;;;;;;;;;;;;13.57;80.37;101643.91;5050475;28;19940;-58
2022/10/30 05:35:00;;;;;;;;;;;;;;;13.55;80.42;101651.25;5042563;28;20557;-58
2022/10/30 05:37:25;;;;;;;;;;;;;;;13.50;80.48;101644.75;5049871;28;19962;-58
2022/10/30 05:39:50;;;;;;;;;;;;;;;13.39;80.61;101645.97;5047208;28;20423;-58
2022/10/30 05:42:16;;;;;;;;;;;;;;;13.33;80.35;101639.47;5043459;28;19967;-59
2022/10/30 05:44:41;;;;;;;;;;;;;;;13.30;80.28;101637.16;5048292;28;20402;-59
2022/10/30 05:47:06;;;;;;;;;;;;;;;13.28;80.48;101636.47;5044721;28;19920;-59
2022/10/30 05:49:31;;;;;;;;;;;;;;;13.26;80.63;101643.78;5044922;28;20403;-58
2022/10/30 05:51:56;;;;;;;;;;;;;;;13.25;80.69;101644.78;5041521;28;20007;-58
2022/10/30 05:54:21;;;;;;;;;;;;;;;13.24;80.75;101637.81;5044528;28;20143;-58
2022/10/30 05:56:47;;;;;;;;;;;;;;;13.22;80.64;101638.97;5042889;28;20018;-58
2022/10/30 05:59:12;;;;;;;;;;;;;;;13.21;80.27;101632.81;5050174;28;19931;-59
2022/10/30 06:01:37;;;;;;;;;;;;;;;13.21;80.77;101631.97;5038704;28;19921;-58
2022/10/30 06:04:02;;;;;;;;;;;;;;;13.18;80.79;101632.31;5041313;28;19962;-58
2022/10/30 06:06:27;;;;;;;;;;;;;;;13.16;81.08;101635.13;5045554;28;20360;-59
2022/10/30 06:08:53;;;;;;;;;;;;;;;13.15;80.93;101640.63;5048924;28;19971;-58
2022/10/30 06:11:18;;;;;;;;;;;;;;;13.11;80.92;101642.78;5052790;28;19920;-58
2022/10/30 06:13:43;;;;;;;;;;;;;;;13.11;80.93;101641.97;5053666;28;20009;-58
2022/10/30 06:16:08;;;;;;;;;;;;;;;13.09;81.02;101641.28;5049721;28;20308;-59
2022/10/30 06:18:33;;;;;;;;;;;;;;;13.06;81.08;101633.63;5049838;28;19924;-58
2022/10/30 06:20:59;;;;;;;;;;;;;;;13.00;80.98;101624.44;5046193;28;19923;-58
2022/10/30 06:23:24;;;;;;;;;;;;;;;12.90;81.32;101627.28;5049722;28;19995;-58
2022/10/30 06:25:49;;;;;;;;;;;;;;;12.81;80.90;101616.81;5053102;28;19924;-58
2022/10/30 06:28:14;;;;;;;;;;;;;;;12.77;81.27;101620.78;5043818;28;19920;-58
2022/10/30 06:30:39;;;;;;;;;;;;;;;12.70;81.34;101616.09;5043155;28;19952;-59
2022/10/30 06:33:04;;;;;;;;;;;;;;;12.66;81.21;101619.28;5044174;28;19963;-59
2022/10/30 06:35:30;;;;;;;;;;;;;;;12.61;81.37;101622.44;5050686;28;19942;-58
2022/10/30 06:37:58;;;;;;;;;;;;;;;12.63;81.09;101622.25;5039977;28;19932;-58
2022/10/30 06:40:24;;;;;;;;;;;;;;;12.66;81.34;101617.44;5050296;28;20289;-58
2022/10/30 06:42:50;;;;;;;;;;;;;;;12.71;81.26;101617.78;5045743;28;19978;-59
2022/10/30 06:45:16;;;;;;;;;;;;;;;12.76;81.54;101627.13;5048941;28;19924;-58
2022/10/30 06:47:41;;;;;;;;;;;;;;;12.74;81.42;101631.78;5052301;28;19920;-58
2022/10/30 06:50:08;;;;;;;;;;;;;;;12.71;81.72;101623.09;5039959;28;20631;-59
2022/10/30 06:52:33;;;;;;;;;;;;;;;12.70;81.80;101626.75;5050349;28;20072;-59
2022/10/30 06:54:58;;;;;;;;;;;;;;;12.71;81.47;101631.09;5046150;28;20365;-59
2022/10/30 06:57:23;;;;;;;;;;;;;;;12.73;81.52;101624.78;5049570;28;19912;-58
2022/10/30 06:59:49;;;;;;;;;;;;;;;12.74;81.72;101624.63;5049554;28;19920;-58
2022/10/30 07:02:14;;;;;;;;;;;;;;;12.76;81.92;101617.31;5046153;28;20289;-59
2022/10/30 07:04:39;;;;;;;;;;;;;;;12.79;81.43;101614.31;5045767;28;19913;-59
2022/10/30 07:07:04;;;;;;;;;;;;;;;12.83;81.68;101615.63;5044229;28;19923;-59
2022/10/30 07:09:30;;;;;;;;;;;;;;;12.86;81.72;101617.13;5046316;28;19917;-58
2022/10/30 07:11:55;;;;;;;;;;;;;;;12.89;81.82;101619.47;5048629;28;19917;-58
2022/10/30 07:14:20;;;;;;;;;;;;;;;12.92;81.85;101621.78;5057862;28;20003;-58
2022/10/30 07:16:46;;;;;;;;;;;;;;;12.91;82.27;101610.28;5051690;28;20330;-59
2022/10/30 07:19:11;;;;;;;;;;;;;;;12.99;82.24;101628.13;5048859;28;19916;-59
2022/10/30 07:21:36;;;;;;;;;;;;;;;13.00;82.13;101621.78;5050543;28;19913;-59
2022/10/30 07:24:01;;;;;;;;;;;;;;;13.03;82.50;101624.13;5046792;28;19963;-58
2022/10/30 07:26:27;;;;;;;;;;;;;;;13.05;82.09;101630.13;5053296;28;19943;-58
2022/10/30 07:28:52;;;;;;;;;;;;;;;13.10;82.68;101627.78;5048893;28;20470;-59
2022/10/30 07:31:17;;;;;;;;;;;;;;;13.19;82.67;101623.31;5041846;28;19913;-58
2022/10/30 07:33:42;;;;;;;;;;;;;;;13.23;83.11;101620.13;5044512;28;19923;-58
2022/10/30 07:36:07;;;;;;;;;;;;;;;13.30;83.24;101621.16;5043283;28;20594;-58
2022/10/30 07:38:33;;;;;;;;;;;;;;;13.36;83.45;101635.63;5048805;28;19916;-58
2022/10/30 07:40:58;;;;;;;;;;;;;;;13.43;83.12;101628.63;5047555;28;19925;-58
2022/10/30 07:43:23;;;;;;;;;;;;;;;13.48;83.43;101628.09;5046269;28;19913;-59
2022/10/30 07:45:48;;;;;;;;;;;;;;;13.51;83.36;101625.91;5040986;28;20375;-58
2022/10/30 07:48:13;;;;;;;;;;;;;;;13.56;83.57;101618.22;5046976;28;19917;-58
2022/10/30 07:50:38;;;;;;;;;;;;;;;13.63;84.00;101605.06;5040830;28;19917;-59
2022/10/30 07:53:04;;;;;;;;;;;;;;;13.67;84.01;101601.03;5048274;28;20665;-58
2022/10/30 07:55:29;;;;;;;;;;;;;;;13.74;83.27;101612.69;5042051;28;19964;-58
2022/10/30 07:57:54;;;;;;;;;;;;;;;13.80;83.06;101611.97;5055317;28;19916;-59
2022/10/30 08:00:19;;;;;;;;;;;;;;;13.86;83.04;101616.63;5046863;28;20016;-58
2022/10/30 08:02:48;;;;;;;;;;;;;;;13.93;82.84;101617.63;5051412;28;20426;-58
2022/10/30 08:05:13;;;;;;;;;;;;;;;14.04;83.36;101627.06;5045668;28;20188;-58
2022/10/30 08:07:38;;;;;;;;;;;;;;;14.13;83.49;101619.84;5048672;28;20564;-58
2022/10/30 08:10:04;;;;;;;;;;;;;;;14.20;83.48;101627.00;5043950;28;19916;-58
2022/10/30 08:12:31;;;;;;;;;;;;;;;14.29;83.67;101614.44;5047469;28;19917;-58
2022/10/30 08:14:56;;;;;;;;;;;;;;;14.39;83.58;101606.19;5047589;28;19927;-59
2022/10/30 08:17:21;;;;;;;;;;;;;;;14.48;83.75;101610.50;5048109;28;19917;-59
2022/10/30 08:19:46;;;;;;;;;;;;;;;14.53;83.37;101608.97;5044000;28;20569;-59
2022/10/30 08:22:11;;;;;;;;;;;;;;;14.61;83.38;101610.75;5056327;28;19913;-59
2022/10/30 08:24:37;;;;;;;;;;;;;;;14.68;83.44;101605.50;5048079;28;19917;-59
2022/10/30 08:27:02;;;;;;;;;;;;;;;14.75;83.54;101612.66;5049498;28;20368;-58
2022/10/30 08:29:27;;;;;;;;;;;;;;;14.81;83.53;101614.59;5046063;28;19977;-58
2022/10/30 08:31:52;;;;;;;;;;;;;;;14.85;83.88;101623.09;5054500;28;19923;-58
2022/10/30 08:34:18;;;;;;;;;;;;;;;14.81;83.64;101638.69;5044409;28;19936;-59
2022/10/30 08:36:43;;;;;;;;;;;;;;;14.82;83.62;101631.47;5039982;28;19917;-59
2022/10/30 08:39:08;;;;;;;;;;;;;;;14.84;84.00;101630.28;5044266;28;19924;-59
2022/10/30 08:41:33;;;;;;;;;;;;;;;14.84;84.08;101630.28;5043992;28;19913;-58
2022/10/30 08:43:58;;;;;;;;;;;;;;;14.84;84.05;101622.28;5044279;28;20311;-59
2022/10/30 08:46:24;;;;;;;;;;;;;;;14.85;84.16;101623.09;5033622;28;20372;-59
2022/10/30 08:48:49;;;;;;;;;;;;;;;14.84;84.19;101619.59;5039809;28;19919;-61
2022/10/30 08:51:14;;;;;;;;;;;;;;;14.84;84.00;101621.44;5047119;28;19917;-61
2022/10/30 08:53:39;;;;;;;;;;;;;;;14.81;84.24;101630.66;5043374;28;19917;-61
2022/10/30 08:56:05;;;;;;;;;;;;;;;14.81;84.03;101627.16;5048055;28;19923;-61
2022/10/30 08:58:30;;;;;;;;;;;;;;;14.83;84.50;101625.97;5047155;28;19928;-61
2022/10/30 09:00:55;;;;;;;;;;;;;;;14.88;84.32;101628.09;5031838;28;19916;-61
2022/10/30 09:03:20;;;;;;;;;;;;;;;14.92;84.46;101629.38;5045101;28;19921;-61
2022/10/30 09:05:46;;;;;;;;;;;;;;;14.95;84.17;101618.31;5048415;28;19916;-61
2022/10/30 09:08:11;;;;;;;;;;;;;;;14.99;84.40;101624.97;5047105;28;19935;-61
2022/10/30 09:10:36;;;;;;;;;;;;;;;15.06;84.09;101619.75;5041984;28;19952;-60
2022/10/30 09:13:02;;;;;;;;;;;;;;;15.15;84.25;101622.16;5059777;28;19920;-61
2022/10/30 09:15:27;;;;;;;;;;;;;;;15.25;84.42;101607.69;5056604;28;19912;-61
2022/10/30 09:17:59;;;;;;;;;;;;;;;15.37;84.30;101598.22;5045153;28;19932;-61
2022/10/30 09:20:25;;;;;;;;;;;;;;;15.55;84.45;101592.47;5050544;28;19913;-61
2022/10/30 09:22:50;;;;;;;;;;;;;;;15.69;84.14;101589.84;5044314;28;19920;-61
2022/10/30 09:25:15;;;;;;;;;;;;;;;15.83;83.81;101593.50;5041836;28;19996;-59
2022/10/30 09:27:41;;;;;;;;;;;;;;;15.96;83.95;101596.38;5045986;28;19969;-61
2022/10/30 09:30:06;;;;;;;;;;;;;;;16.09;83.91;101601.06;5046803;28;19964;-61
2022/10/30 09:32:31;;;;;;;;;;;;;;;16.21;83.67;101596.06;5053482;28;19916;-61
2022/10/30 09:34:57;;;;;;;;;;;;;;;16.30;83.40;101598.41;5052940;28;20055;-61
2022/10/30 09:37:23;;;;;;;;;;;;;;;16.39;83.25;101608.00;5041460;28;20384;-61
2022/10/30 09:39:48;;;;;;;;;;;;;;;16.50;83.08;101605.84;5044510;28;20498;-61
2022/10/30 09:42:16;;;;;;;;;;;;;;;16.54;82.88;101601.75;5047486;28;19913;-61
2022/10/30 09:44:41;;;;;;;;;;;;;;;16.65;82.45;101614.66;5050426;28;19988;-61
2022/10/30 09:47:19;;;;;;;;;;;;;;;16.73;82.27;101609.19;5050910;28;19913;-61
2022/10/30 09:49:50;;;;;;;;;;;;;;;16.77;81.79;101621.22;5051500;28;19944;-60
2022/10/30 09:52:32;;;;;;;;;;;;;;;16.81;80.78;101633.22;5053785;28;19947;-60
2022/10/30 09:55:03;;;;;;;;;;;;;;;16.85;80.78;101633.66;5055189;28;19919;-61
2022/10/30 09:57:40;;;;;;;;;;;;;;;16.86;80.24;101641.50;5044955;28;19931;-61
2022/10/30 10:00:10;;;;;;;;;;;;;;;16.86;80.39;101640.69;5050080;28;20419;-61
2022/10/30 10:02:37;;;;;;;;;;;;;;;16.85;80.58;101639.03;5052773;28;19916;-61
2022/10/30 10:05:13;;;;;;;;;;;;;;;16.85;80.67;101639.03;5050222;28;19917;-61
2022/10/30 10:07:45;;;;;;;;;;;;;;;16.88;80.47;101642.16;5054458;28;19913;-61
2022/10/30 10:10:16;;;;;;;;;;;;;;;16.90;80.80;101637.44;5055244;28;19917;-61
2022/10/30 10:12:46;;;;;;;;;;;;;;;16.95;81.09;101634.97;5049240;28;20307;-61
2022/10/30 10:15:28;;;;;;;;;;;;;;;16.99;80.98;101625.53;5053137;28;19982;-61
2022/10/30 10:17:53;;;;;;;;;;;;;;;17.07;80.88;101627.25;5056341;28;19917;-61
2022/10/30 10:20:33;;;;;;;;;;;;;;;17.16;81.03;101630.63;5050618;28;19916;-61
2022/10/30 10:23:01;;;;;;;;;;;;;;;17.21;80.75;101628.19;5048819;28;19917;-61
2022/10/30 10:25:29;;;;;;;;;;;;;;;17.27;80.85;101627.41;5055835;28;19920;-60
2022/10/30 10:28:32;;;;;;;;;;;;;;;17.33;80.96;101627.44;5049455;28;19912;-61
2022/10/30 10:31:08;;;;;;;;;;;;;;;17.41;80.61;101621.09;4990739;28;19918;-61
2022/10/30 10:33:56;;;;;;;;;;;;;;;17.48;80.49;101618.47;4988914;28;20488;-61
2022/10/30 10:36:33;;;;;;;;;;;;;;;17.56;80.52;101615.59;5032691;28;20372;-61
2022/10/30 10:39:11;;;;;;;;;;;;;;;17.61;80.10;101615.84;5045093;28;20400;-61
2022/10/30 10:41:52;;;;;;;;;;;;;;;17.66;79.77;101610.72;5052199;28;20680;-61
2022/10/30 10:44:27;;;;;;;;;;;;;;;17.73;79.48;101608.09;5045658;28;20394;-61
2022/10/30 10:46:59;;;;;;;;;;;;;;;17.81;79.91;101607.94;5046916;28;20289;-61
2022/10/30 10:49:44;;;;;;;;;;;;;;;17.85;79.38;101604.63;5043652;28;20011;-61
2022/10/30 10:52:13;;;;;;;;;;;;;;;17.93;79.17;101612.56;5051694;28;19913;-61
2022/10/30 10:54:42;;;;;;;;;;;;;;;18.02;78.55;101615.88;5043353;28;20326;-61
2022/10/30 10:57:13;;;;;;;;;;;;;;;18.12;78.46;101620.88;5051250;28;20273;-61
2022/10/30 10:59:43;;;;;;;;;;;;;;;18.22;78.01;101619.50;5045909;28;19928;-61
2022/10/30 11:02:08;;;;;;;;;;;;;;;18.31;78.09;101617.44;5051319;28;19916;-61
2022/10/30 11:04:37;;;;;;;;;;;;;;;18.38;78.04;101617.44;5049383;28;19966;-61
2022/10/30 11:07:14;;;;;;;;;;;;;;;18.46;78.10;101617.25;5046934;28;19917;-62
2022/10/30 11:09:40;;;;;;;;;;;;;;;18.52;77.82;101611.91;5032612;28;20007;-61
2022/10/30 11:12:05;;;;;;;;;;;;;;;18.57;77.81;101601.38;5047252;28;20008;-61
2022/10/30 11:14:30;;;;;;;;;;;;;;;18.65;77.81;101596.84;5053240;28;20008;-61
2022/10/30 11:17:14;;;;;;;;;;;;;;;18.75;77.65;101597.25;5047328;28;19924;-61
2022/10/30 11:19:39;;;;;;;;;;;;;;;18.84;77.38;101588.81;5050161;28;19921;-61
2022/10/30 11:22:23;;;;;;;;;;;;;;;18.93;77.26;101585.91;5045487;28;19925;-61
2022/10/30 11:24:49;;;;;;;;;;;;;;;19.06;77.50;101581.31;5044081;28;19924;-61
2022/10/30 11:27:18;;;;;;;;;;;;;;;19.17;77.20;101585.25;5048005;28;19913;-61
2022/10/30 11:29:49;;;;;;;;;;;;;;;19.28;77.20;101586.47;5047111;28;19951;-61
2022/10/30 11:32:17;;;;;;;;;;;;;;;19.39;76.46;101586.69;5048251;28;20022;-61
2022/10/30 11:34:42;;;;;;;;;;;;;;;19.46;76.14;101584.78;5044698;28;19998;-62
2022/10/30 11:37:27;;;;;;;;;;;;;;;19.55;76.05;101598.06;5047487;28;20649;-62
2022/10/30 11:40:00;;;;;;;;;;;;;;;19.59;75.19;101592.03;5045561;28;19925;-61
2022/10/30 11:42:26;;;;;;;;;;;;;;;19.67;75.44;101588.31;5038718;28;19924;-61
2022/10/30 11:44:51;;;;;;;;;;;;;;;19.77;75.62;101589.50;5042875;28;19978;-61
2022/10/30 11:47:20;;;;;;;;;;;;;;;19.84;74.57;101589.47;5045253;28;20511;-61
2022/10/30 11:49:45;;;;;;;;;;;;;;;19.88;73.63;101589.88;5042185;28;20003;-61
2022/10/30 11:52:11;;;;;;;;;;;;;;;19.95;73.12;101591.50;5044968;28;20016;-61
2022/10/30 11:54:38;;;;;;;;;;;;;;;20.07;72.32;101583.56;5045000;28;19920;-61
2022/10/30 11:57:15;;;;;;;;;;;;;;;20.14;71.53;101578.13;5045709;28;19931;-61
2022/10/30 11:59:44;;;;;;;;;;;;;;;20.16;71.13;101578.75;5046031;28;19974;-61
2022/10/30 12:02:20;;;;;;;;;;;;;;;20.26;71.95;101587.22;5045498;28;19921;-61
2022/10/30 12:04:45;;;;;;;;;;;;;;;20.35;72.26;101575.94;5045716;28;19967;-61
2022/10/30 12:07:26;;;;;;;;;;;;;;;20.35;72.08;101575.94;5041198;28;19920;-61
2022/10/30 12:09:51;;;;;;;;;;;;;;;20.33;70.72;101577.19;5043888;28;20468;-62
2022/10/30 12:12:16;;;;;;;;;;;;;;;20.18;69.40;101582.88;5059861;28;20003;-61
2022/10/30 12:14:42;;;;;;;;;;;;;;;20.04;68.53;101584.81;5048343;28;19916;-61
2022/10/30 12:17:07;;;;;;;;;;;;;;;19.96;69.34;101573.47;5057752;28;19922;-61
2022/10/30 12:19:33;;;;;;;;;;;;;;;19.95;70.43;101569.09;5057127;28;19976;-61
2022/10/30 12:22:00;;;;;;;;;;;;;;;19.92;70.20;101558.72;5037589;28;19916;-61
2022/10/30 12:24:25;;;;;;;;;;;;;;;19.88;69.63;101565.59;5044548;28;19947;-61
2022/10/30 12:26:53;;;;;;;;;;;;;;;19.85;69.86;101563.34;5041061;28;19917;-61
2022/10/30 12:29:21;;;;;;;;;;;;;;;19.84;70.12;101562.50;5041142;28;19923;-61
2022/10/30 12:31:54;;;;;;;;;;;;;;;19.88;70.64;101566.44;5048783;28;19920;-61
2022/10/30 12:34:27;;;;;;;;;;;;;;;19.92;70.75;101562.25;5051448;28;19917;-61
2022/10/30 12:36:55;;;;;;;;;;;;;;;19.92;70.64;101567.66;5038402;28;19917;-61